Time;durP1;ratioP1;P1;durP2;ratioP2;P2;SDS_P1;SDS_P2;PMS_P1;PMS_P2;Temp;Humidity;BMP_temperature;BMP_pressure;BME280_temperature;BME280_humidity;BME280_pressure;Samples;Min_cycle;Max_cycle;Signal;HPM_P1;HPM_P2
2022/01/22 00:02:24;;;;;;;2.90;2.70;;;15.70;60.10;;;;;;4958532;28;20039;-16
2022/01/22 00:04:50;;;;;;;2.70;2.60;;;15.70;60.10;;;;;;4953959;28;20051;-17
2022/01/22 00:07:16;;;;;;;2.88;2.67;;;15.70;60.00;;;;;;4957680;28;20043;-15
2022/01/22 00:09:48;;;;;;;3.05;2.85;;;15.70;60.00;;;;;;4957970;28;20043;-16
2022/01/22 00:12:26;;;;;;;2.70;2.50;;;15.70;60.10;;;;;;4957571;28;20055;-15
2022/01/22 00:14:52;;;;;;;2.92;2.72;;;15.70;60.10;;;;;;4945352;28;20063;-17
2022/01/22 00:17:17;;;;;;;3.00;2.80;;;15.70;60.00;;;;;;4941413;28;20050;-17
2022/01/22 00:19:43;;;;;;;2.50;2.40;;;15.70;60.10;;;;;;4957972;28;20055;-16
2022/01/22 00:22:09;;;;;;;2.63;2.42;;;15.70;60.10;;;;;;4953770;28;20047;-16
2022/01/22 00:24:38;;;;;;;3.28;3.03;;;15.60;60.00;;;;;;4938955;28;20052;-16
2022/01/22 00:27:04;;;;;;;3.08;2.88;;;15.60;60.00;;;;;;4938373;28;20043;-14
2022/01/22 00:29:30;;;;;;;2.60;2.47;;;15.60;60.00;;;;;;4954409;28;20050;-16
2022/01/22 00:31:56;;;;;;;2.88;2.67;;;15.60;60.00;;;;;;4950324;28;20106;-17
2022/01/22 00:34:21;;;;;;;3.00;2.80;;;15.60;60.00;;;;;;4938637;28;20052;-15
2022/01/22 00:36:47;;;;;;;2.60;2.40;;;15.60;60.00;;;;;;4938546;28;20138;-15
2022/01/22 00:39:12;;;;;;;2.78;2.65;;;15.60;60.00;;;;;;4938240;28;20142;-17
2022/01/22 00:41:38;;;;;;;2.22;2.13;;;15.60;60.10;;;;;;4938688;28;20508;-14
2022/01/22 00:44:04;;;;;;;2.40;2.30;;;15.60;60.10;;;;;;4938024;28;20043;-16
2022/01/22 00:46:29;;;;;;;2.47;2.38;;;15.60;60.00;;;;;;4955035;28;20082;-15
2022/01/22 00:48:55;;;;;;;2.28;2.17;;;15.50;60.00;;;;;;4956646;28;20412;-16
2022/01/22 00:51:21;;;;;;;2.63;2.45;;;15.50;60.00;;;;;;4956663;28;20109;-16
2022/01/22 00:53:46;;;;;;;2.45;2.25;;;15.60;60.10;;;;;;4957555;28;20043;-16
2022/01/22 00:56:13;;;;;;;2.80;2.60;;;15.60;60.10;;;;;;4956981;28;20039;-16
2022/01/22 00:58:39;;;;;;;2.10;2.00;;;15.50;60.10;;;;;;4950358;28;20055;-16
2022/01/22 01:01:04;;;;;;;2.30;2.20;;;15.50;60.10;;;;;;4956928;28;20170;-16
2022/01/22 01:03:33;;;;;;;2.67;2.47;;;15.50;60.10;;;;;;4957364;28;20035;-16
2022/01/22 01:06:02;;;;;;;2.28;2.17;;;15.60;60.00;;;;;;4956802;28;20128;-18
2022/01/22 01:08:29;;;;;;;2.38;2.20;;;15.50;60.00;;;;;;4952214;28;20051;-16
2022/01/22 01:10:54;;;;;;;2.92;2.72;;;15.50;60.00;;;;;;4938117;28;20047;-16
2022/01/22 01:13:21;;;;;;;2.40;2.30;;;15.50;60.00;;;;;;4938071;28;20103;-16
2022/01/22 01:32:58;;;;;;;3.20;3.00;;;15.40;60.20;;;;;;4956058;28;20054;-15
2022/01/22 01:35:15;;;;;;;2.53;2.42;;;15.40;60.10;;;;;;4956468;28;20051;-17
2022/01/22 01:37:40;;;;;;;3.00;2.80;;;15.40;60.20;;;;;;4956498;28;20051;-14
2022/01/22 01:40:08;;;;;;;2.58;2.47;;;15.40;60.20;;;;;;4956477;28;20077;-17
2022/01/22 01:42:44;;;;;;;2.58;2.40;;;15.40;60.00;;;;;;4959726;28;20051;-16
2022/01/22 01:45:10;;;;;;;2.70;2.50;;;15.40;60.20;;;;;;4954643;28;20047;-17
2022/01/22 01:47:37;;;;;;;2.70;2.50;;;15.40;60.20;;;;;;4941656;28;20048;-14
2022/01/22 01:50:04;;;;;;;2.60;2.50;;;15.30;60.30;;;;;;4941082;28;20052;-16
2022/01/22 01:52:39;;;;;;;2.75;2.55;;;15.30;60.40;;;;;;4954220;28;20051;-16
2022/01/22 01:55:12;;;;;;;2.42;2.33;;;15.30;60.30;;;;;;4959777;28;20107;-16
2022/01/22 01:57:40;;;;;;;2.97;2.78;;;15.30;60.20;;;;;;4945513;28;20412;-16
2022/01/22 02:00:12;;;;;;;2.90;2.70;;;15.40;60.20;;;;;;4960177;28;20043;-17
2022/01/22 02:02:38;;;;;;;2.22;2.13;;;15.30;60.20;;;;;;4942385;28;20058;-15
2022/01/22 02:05:05;;;;;;;2.38;2.25;;;15.30;60.10;;;;;;4949928;28;20055;-15
2022/01/22 02:07:30;;;;;;;2.47;2.38;;;15.30;60.30;;;;;;4960390;28;20054;-17
2022/01/22 02:09:58;;;;;;;2.10;2.00;;;15.30;60.20;;;;;;4952549;28;20047;-16
2022/01/22 02:12:48;;;;;;;2.47;2.38;;;15.20;60.40;;;;;;4940769;28;20523;-16
2022/01/22 02:25:57;;;;;;;2.60;2.50;;;15.20;60.50;;;;;;4960284;28;19921;-16
2022/01/22 02:28:23;;;;;;;2.58;2.45;;;15.20;60.50;;;;;;4959310;28;20057;-16
2022/01/22 02:30:54;;;;;;;2.63;2.42;;;15.20;60.50;;;;;;4960162;28;20047;-16
2022/01/22 02:38:17;;;;;;;2.40;2.30;;;15.20;60.40;;;;;;4958886;28;20058;-16
2022/01/22 02:40:46;;;;;;;2.13;2.03;;;15.20;60.40;;;;;;4960026;28;20095;-16
2022/01/22 02:43:12;;;;;;;2.70;2.50;;;15.20;60.50;;;;;;4959341;28;20046;-16
2022/01/22 02:45:42;;;;;;;2.80;2.60;;;15.20;60.40;;;;;;4959204;28;20457;-14
2022/01/22 02:48:08;;;;;;;2.45;2.35;;;15.20;60.30;;;;;;4959072;28;20047;-14
2022/01/22 02:50:33;;;;;;;2.38;2.25;;;15.20;60.30;;;;;;4959261;28;20051;-15
2022/01/22 02:53:03;;;;;;;2.13;2.03;;;15.20;60.20;;;;;;4958878;28;20066;-16
2022/01/22 02:55:29;;;;;;;3.45;3.15;;;15.20;60.30;;;;;;4959230;28;20047;-16
2022/01/22 02:57:54;;;;;;;2.10;2.00;;;15.20;60.40;;;;;;4958362;28;20183;-16
2022/01/22 03:00:22;;;;;;;3.05;2.85;;;15.20;60.30;;;;;;4958203;28;20039;-14
2022/01/22 03:02:49;;;;;;;2.20;2.10;;;15.20;60.40;;;;;;4940314;28;20047;-14
2022/01/22 03:05:14;;;;;;;2.28;2.17;;;15.20;60.20;;;;;;4950125;28;20035;-16
2022/01/22 03:07:43;;;;;;;1.95;1.83;;;15.20;60.30;;;;;;4947128;28;20047;-16
2022/01/22 03:10:09;;;;;;;2.53;2.33;;;15.20;60.30;;;;;;4939552;28;20048;-16
2022/01/22 03:18:04;;;;;;;2.20;2.03;;;15.10;60.30;;;;;;4947230;28;20058;-16
2022/01/22 03:28:39;;;;;;;2.20;2.10;;;15.10;60.20;;;;;;4948124;28;20112;-17
2022/01/22 03:31:05;;;;;;;2.33;2.03;;;15.10;60.20;;;;;;4939353;28;20140;-16
2022/01/22 03:33:31;;;;;;;1.98;1.88;;;15.10;60.20;;;;;;4939712;28;20075;-16
2022/01/22 03:35:57;;;;;;;1.85;1.75;;;15.10;60.30;;;;;;4946498;28;20055;-16
2022/01/22 03:38:23;;;;;;;1.90;1.80;;;15.10;60.30;;;;;;4958363;28;20079;-16
2022/01/22 03:40:50;;;;;;;2.35;2.15;;;15.00;60.50;;;;;;4958138;28;20113;-14
2022/01/22 03:43:16;;;;;;;2.40;2.20;;;15.10;60.40;;;;;;4958265;28;20057;-16
2022/01/22 03:45:42;;;;;;;2.20;2.00;;;15.10;60.30;;;;;;4958123;28;20054;-18
2022/01/22 03:48:07;;;;;;;1.90;1.80;;;15.10;60.30;;;;;;4958025;28;20051;-14
2022/01/22 03:50:33;;;;;;;2.17;1.98;;;15.10;60.20;;;;;;4943912;28;20408;-16
2022/01/22 03:52:59;;;;;;;1.73;1.63;;;15.10;60.20;;;;;;4939432;28;20048;-16
2022/01/22 03:55:42;;;;;;;1.95;1.85;;;15.10;60.20;;;;;;4957763;28;20575;-15
2022/01/22 03:58:08;;;;;;;2.40;2.20;;;15.10;60.30;;;;;;4957615;28;20078;-17
2022/01/22 04:00:34;;;;;;;2.30;2.20;;;15.10;60.20;;;;;;4958511;28;20278;-17
2022/01/22 04:03:28;;;;;;;1.98;1.88;;;15.10;60.20;;;;;;4953520;28;20043;-16
2022/01/22 04:08:28;;;;;;;2.33;2.22;;;15.00;60.20;;;;;;4957960;28;20098;-16
2022/01/22 04:10:54;;;;;;;2.13;1.98;;;15.10;60.20;;;;;;4958192;28;20043;-16
2022/01/22 04:13:25;;;;;;;2.10;1.92;;;15.00;60.10;;;;;;4952619;28;20567;-17
2022/01/22 04:15:50;;;;;;;2.00;1.90;;;15.00;60.20;;;;;;4939156;28;20093;-15
2022/01/22 04:26:52;;;;;;;1.63;1.52;;;15.00;60.10;;;;;;4924077;28;20060;-14
2022/01/22 04:29:19;;;;;;;1.80;1.70;;;15.00;60.20;;;;;;4919152;29;20047;-16
2022/01/22 04:31:45;;;;;;;1.40;1.30;;;15.00;60.10;;;;;;4920100;29;20047;-15
2022/01/22 04:34:10;;;;;;;1.60;1.50;;;15.00;60.10;;;;;;4919002;29;20044;-15
2022/01/22 04:36:36;;;;;;;1.52;1.42;;;15.00;60.10;;;;;;4928787;28;20052;-17
2022/01/22 04:39:02;;;;;;;1.67;1.58;;;15.10;60.10;;;;;;4919655;29;20040;-17
2022/01/22 04:41:28;;;;;;;1.63;1.52;;;15.00;60.10;;;;;;4923852;28;20048;-15
2022/01/22 04:43:59;;;;;;;2.10;1.92;;;15.00;60.10;;;;;;4952518;28;20050;-14
2022/01/22 04:46:37;;;;;;;2.08;1.98;;;15.00;60.00;;;;;;4956970;28;20046;-16
2022/01/22 04:49:09;;;;;;;1.80;1.70;;;15.00;60.00;;;;;;4940759;28;20051;-15
2022/01/22 04:57:03;;;;;;;;;;;15.00;60.10;;;;;;4947073;28;20158;-14
2022/01/22 04:59:29;;;;;;;2.38;1.85;;;15.00;60.20;;;;;;4956966;28;20501;-17
2022/01/22 05:01:55;;;;;;;2.20;2.00;;;15.00;60.20;;;;;;4950928;28;20047;-16
2022/01/22 05:04:21;;;;;;;2.33;2.13;;;15.00;60.10;;;;;;4923392;28;20054;-17
2022/01/22 05:06:47;;;;;;;2.03;1.92;;;15.00;60.10;;;;;;4956893;28;20064;-17
2022/01/22 05:09:12;;;;;;;1.90;1.80;;;15.00;60.20;;;;;;4956623;28;20050;-18
2022/01/22 05:11:38;;;;;;;1.88;1.77;;;15.00;60.20;;;;;;4956739;28;20134;-15
2022/01/22 05:14:03;;;;;;;1.80;1.70;;;15.00;60.20;;;;;;4957449;28;20571;-17
2022/01/22 05:16:29;;;;;;;1.70;1.60;;;15.00;60.20;;;;;;4956108;28;20043;-18
2022/01/22 05:19:00;;;;;;;1.70;1.60;;;15.00;60.10;;;;;;4956456;28;20623;-17
2022/01/22 05:21:28;;;;;;;1.42;1.33;;;15.00;60.10;;;;;;4956064;28;20502;-15
2022/01/22 05:23:56;;;;;;;1.70;1.60;;;15.00;60.00;;;;;;4957356;28;20043;-16
2022/01/22 05:32:04;;;;;;;1.25;1.25;;;14.90;60.10;;;;;;4946440;28;20544;-18
2022/01/22 05:37:11;;;;;;;1.88;1.70;;;14.90;60.20;;;;;;4938127;28;20086;-16
2022/01/22 05:39:37;;;;;;;2.08;1.50;;;15.00;60.10;;;;;;4937557;28;20099;-15
2022/01/22 05:42:04;;;;;;;1.42;1.33;;;15.00;60.20;;;;;;4938308;28;20052;-15
2022/01/22 05:44:35;;;;;;;1.60;1.50;;;14.90;60.10;;;;;;4945681;28;20126;-16
2022/01/22 05:47:04;;;;;;;1.77;1.67;;;14.90;60.20;;;;;;4948090;28;20042;-15
2022/01/22 05:49:32;;;;;;;1.80;1.50;;;14.90;60.10;;;;;;4955452;28;20481;-16
2022/01/22 05:52:00;;;;;;;1.50;1.40;;;15.00;60.10;;;;;;4939673;28;20044;-16
2022/01/22 05:59:41;;;;;;;1.23;1.15;;;14.90;60.10;;;;;;4937467;28;20050;-16
2022/01/22 06:02:08;;;;;;;1.40;1.30;;;14.90;60.10;;;;;;4938472;28;20123;-14
2022/01/22 06:04:34;;;;;;;1.15;1.15;;;14.90;60.20;;;;;;4941881;28;20047;-16
2022/01/22 06:06:59;;;;;;;1.70;1.60;;;14.90;60.20;;;;;;4956882;28;20042;-16
2022/01/22 06:09:26;;;;;;;1.52;1.40;;;14.90;60.00;;;;;;4941166;28;20520;-17
2022/01/22 06:12:37;;;;;;;1.40;1.30;;;14.90;60.20;;;;;;4942304;28;20071;-15
2022/01/22 06:14:43;;;;;;;1.58;1.48;;;14.90;60.30;;;;;;4956170;28;20047;-14
2022/01/22 06:17:09;;;;;;;1.50;1.40;;;14.80;60.40;;;;;;4956595;28;20042;-17
2022/01/22 06:19:35;;;;;;;1.77;1.67;;;14.80;60.30;;;;;;4955672;28;20326;-15
2022/01/22 06:22:00;;;;;;;1.45;1.35;;;14.90;60.30;;;;;;4956954;28;20039;-14
2022/01/22 06:24:26;;;;;;;1.55;1.45;;;14.90;60.20;;;;;;4955586;28;20047;-16
2022/01/22 06:26:51;;;;;;;1.42;1.33;;;14.90;60.20;;;;;;4956564;28;20102;-14
2022/01/22 06:29:17;;;;;;;1.50;1.40;;;14.90;60.30;;;;;;4958748;28;20039;-17
2022/01/22 06:31:43;;;;;;;1.17;1.17;;;14.80;60.20;;;;;;4960254;28;20046;-16
2022/01/22 06:34:08;;;;;;;1.30;1.20;;;14.80;60.20;;;;;;4959294;28;20043;-16
2022/01/22 06:36:34;;;;;;;1.63;1.52;;;14.90;60.20;;;;;;4959467;28;20043;-16
2022/01/22 06:39:14;;;;;;;1.48;1.38;;;14.90;60.20;;;;;;4958817;28;20188;-16
2022/01/22 06:41:46;;;;;;;1.40;1.30;;;14.80;60.10;;;;;;4958731;28;20055;-18
2022/01/22 06:44:24;;;;;;;1.40;1.30;;;14.80;60.20;;;;;;4960010;28;20066;-16
2022/01/22 06:46:51;;;;;;;1.42;1.33;;;14.80;60.20;;;;;;4940439;28;20074;-16
2022/01/22 06:49:16;;;;;;;1.75;1.65;;;14.80;60.20;;;;;;4940450;28;20047;-17
2022/01/22 06:51:42;;;;;;;1.60;1.50;;;14.80;60.20;;;;;;4940586;28;20051;-14
2022/01/22 06:54:10;;;;;;;1.70;1.35;;;14.80;60.20;;;;;;4940664;28;20497;-15
2022/01/22 06:56:36;;;;;;;1.17;1.08;;;14.80;60.00;;;;;;4954680;28;20846;-17
2022/01/22 06:59:02;;;;;;;1.38;1.27;;;14.80;59.90;;;;;;4943730;28;20052;-16
2022/01/22 07:01:28;;;;;;;1.35;1.25;;;14.80;60.10;;;;;;4939898;28;20091;-16
2022/01/22 07:03:54;;;;;;;1.38;1.27;;;14.80;60.10;;;;;;4940410;28;20048;-14
2022/01/22 07:06:20;;;;;;;1.23;1.17;;;14.80;59.90;;;;;;4946511;28;20068;-15
2022/01/22 07:08:46;;;;;;;1.10;1.10;;;14.80;60.00;;;;;;4940386;28;20400;-14
2022/01/22 07:11:12;;;;;;;1.50;1.40;;;14.80;60.00;;;;;;4951146;28;20508;-16
2022/01/22 07:13:37;;;;;;;1.13;1.08;;;14.80;60.10;;;;;;4958860;28;20054;-16
2022/01/22 07:16:04;;;;;;;1.58;1.48;;;14.80;60.00;;;;;;4958901;28;20480;-17
2022/01/22 07:18:30;;;;;;;1.38;1.27;;;14.80;60.00;;;;;;4958496;28;20047;-17
2022/01/22 07:20:56;;;;;;;1.27;1.20;;;14.80;60.00;;;;;;4959343;28;20039;-16
2022/01/22 07:26:19;;;;;;;1.20;1.20;;;14.80;60.10;;;;;;4945755;28;20051;-15
2022/01/22 07:28:45;;;;;;;1.02;1.00;;;14.80;60.10;;;;;;4959180;28;20062;-16
2022/01/22 07:31:10;;;;;;;1.25;1.15;;;14.80;60.10;;;;;;4958306;28;20126;-17
2022/01/22 07:33:36;;;;;;;1.10;1.10;;;14.80;60.10;;;;;;4958220;28;20079;-14
2022/01/22 07:36:03;;;;;;;1.00;1.00;;;14.80;60.20;;;;;;4950462;28;20055;-15
2022/01/22 07:38:28;;;;;;;1.40;1.30;;;14.80;60.10;;;;;;4938834;28;20044;-15
2022/01/22 07:40:54;;;;;;;1.20;1.20;;;14.80;60.10;;;;;;4939481;28;20090;-14
2022/01/22 07:43:20;;;;;;;1.30;1.20;;;14.80;60.20;;;;;;4939792;28;20055;-16
2022/01/22 07:45:45;;;;;;;1.15;1.13;;;14.70;60.40;;;;;;4950244;28;20051;-16
2022/01/22 07:48:11;;;;;;;1.42;1.33;;;14.80;60.20;;;;;;4958676;28;20767;-16
2022/01/22 07:50:37;;;;;;;1.20;1.10;;;14.70;60.30;;;;;;4951151;28;20040;-16
2022/01/22 07:53:02;;;;;;;0.90;0.90;;;14.70;60.20;;;;;;4939623;28;20083;-16
2022/01/22 07:55:31;;;;;;;1.27;1.17;;;14.70;60.20;;;;;;4948632;28;20243;-16
2022/01/22 07:57:57;;;;;;;1.25;1.15;;;14.70;60.10;;;;;;4958676;28;20048;-16
2022/01/22 08:00:22;;;;;;;1.23;1.23;;;14.80;60.10;;;;;;4958085;28;20148;-18
2022/01/22 08:02:48;;;;;;;1.00;1.00;;;14.70;60.10;;;;;;4958358;28;20073;-16
2022/01/22 08:05:14;;;;;;;1.30;1.27;;;14.70;60.10;;;;;;4957812;28;20043;-16
2022/01/22 08:07:43;;;;;;;1.13;1.10;;;14.70;60.20;;;;;;4957834;28;20105;-16
2022/01/22 08:10:10;;;;;;;1.38;1.27;;;14.80;60.10;;;;;;4956206;28;20130;-14
2022/01/22 08:12:37;;;;;;;1.38;1.30;;;14.70;60.10;;;;;;4956666;28;20413;-14
2022/01/22 08:15:07;;;;;;;1.15;1.13;;;14.70;60.30;;;;;;4958327;28;20062;-16
2022/01/22 08:17:32;;;;;;;1.17;1.00;;;14.70;60.00;;;;;;4957187;28;20078;-16
2022/01/22 08:19:58;;;;;;;1.10;1.02;;;14.70;60.30;;;;;;4947621;28;20048;-16
2022/01/22 08:22:23;;;;;;;1.10;1.10;;;14.70;60.10;;;;;;4938420;28;20571;-17
2022/01/22 08:24:52;;;;;;;0.80;0.80;;;14.80;60.10;;;;;;4955877;28;20051;-16
2022/01/22 08:27:35;;;;;;;1.10;1.10;;;14.70;60.00;;;;;;4938992;28;20062;-15
2022/01/22 08:30:01;;;;;;;1.30;1.20;;;14.70;59.90;;;;;;4938417;28;20044;-16
2022/01/22 08:37:37;;;;;;;1.10;1.10;;;14.70;60.10;;;;;;4956817;28;20182;-14
2022/01/22 08:40:06;;;;;;;1.10;1.10;;;14.70;60.00;;;;;;4957829;28;20118;-16
2022/01/22 08:42:32;;;;;;;1.10;1.10;;;14.70;60.10;;;;;;4957241;28;20043;-17
2022/01/22 08:44:57;;;;;;;0.90;0.90;;;14.70;60.00;;;;;;4956926;28;20157;-16
2022/01/22 08:47:23;;;;;;;0.98;0.98;;;14.70;60.00;;;;;;4948727;28;20066;-16
2022/01/22 08:49:48;;;;;;;1.30;1.20;;;14.70;60.20;;;;;;4939554;28;20504;-17
2022/01/22 08:52:16;;;;;;;1.15;1.05;;;14.70;60.10;;;;;;4956825;28;20053;-20
2022/01/22 08:54:42;;;;;;;0.90;0.90;;;14.70;60.10;;;;;;4955948;28;20377;-17
2022/01/22 08:57:08;;;;;;;1.10;1.10;;;14.70;60.30;;;;;;4956367;28;20078;-14
2022/01/22 08:59:33;;;;;;;1.10;1.00;;;14.70;60.30;;;;;;4956297;28;20420;-15
2022/01/22 09:01:59;;;;;;;0.93;0.93;;;14.70;60.10;;;;;;4957009;28;20046;-15
2022/01/22 09:04:25;;;;;;;1.10;1.00;;;14.70;60.10;;;;;;4947942;28;20087;-18
2022/01/22 09:06:51;;;;;;;1.10;1.00;;;14.70;60.00;;;;;;4957117;28;20131;-14
2022/01/22 09:09:16;;;;;;;0.82;0.82;;;14.70;60.20;;;;;;4949592;28;20035;-16
2022/01/22 09:11:43;;;;;;;1.00;1.00;;;14.70;60.10;;;;;;4948575;28;20058;-17
2022/01/22 09:14:10;;;;;;;1.05;1.05;;;14.70;60.10;;;;;;4957092;28;20042;-17
2022/01/22 09:16:35;;;;;;;1.00;1.00;;;14.70;60.10;;;;;;4952124;28;20055;-15
2022/01/22 09:19:06;;;;;;;0.90;0.90;;;14.70;60.10;;;;;;4956795;28;20045;-15
2022/01/22 09:21:35;;;;;;;1.10;1.10;;;14.70;60.70;;;;;;4956429;28;20512;-15
2022/01/22 09:24:01;;;;;;;1.17;1.08;;;14.70;60.10;;;;;;4956813;28;20067;-17
2022/01/22 09:26:28;;;;;;;0.90;0.90;;;14.70;60.30;;;;;;4955708;28;20058;-19
2022/01/22 09:28:56;;;;;;;0.93;0.93;;;14.70;60.20;;;;;;4956020;28;20130;-16
2022/01/22 09:31:21;;;;;;;1.02;1.02;;;14.70;60.30;;;;;;4956511;28;20051;-15
2022/01/22 09:33:47;;;;;;;1.15;1.13;;;14.70;60.10;;;;;;4955795;28;20050;-16
2022/01/22 09:36:13;;;;;;;1.00;1.00;;;14.70;60.30;;;;;;4956870;28;20063;-16
2022/01/22 09:38:38;;;;;;;0.90;0.90;;;14.70;60.30;;;;;;4954896;28;20043;-14
2022/01/22 09:41:05;;;;;;;0.95;0.95;;;14.70;60.30;;;;;;4956599;28;20065;-17
2022/01/22 09:43:31;;;;;;;1.27;1.17;;;14.70;60.20;;;;;;4950956;28;20090;-17
2022/01/22 09:45:57;;;;;;;1.13;1.00;;;14.70;60.30;;;;;;4955434;28;20051;-16
2022/01/22 09:48:23;;;;;;;0.98;0.98;;;14.70;60.10;;;;;;4937728;28;20052;-15
2022/01/22 09:50:48;;;;;;;0.93;0.93;;;14.70;59.90;;;;;;4943035;28;20062;-14
2022/01/22 09:53:14;;;;;;;1.20;1.10;;;14.70;59.80;;;;;;4956994;28;20810;-15
2022/01/22 09:55:40;;;;;;;1.00;1.00;;;14.60;60.00;;;;;;4955360;28;20047;-15
2022/01/22 09:58:05;;;;;;;1.08;0.98;;;14.70;60.10;;;;;;4609537;28;10000462;-14
2022/01/22 10:00:31;;;;;;;1.15;1.08;;;14.70;59.90;;;;;;4952008;28;20603;-17
2022/01/22 10:02:57;;;;;;;1.25;1.15;;;14.70;59.90;;;;;;4962017;28;20042;-17
2022/01/22 10:05:37;;;;;;;1.10;1.00;;;14.70;59.90;;;;;;4960550;28;20133;-15
2022/01/22 10:08:19;;;;;;;1.05;1.00;;;14.70;60.40;;;;;;4956121;28;20066;-15
2022/01/22 10:10:45;;;;;;;1.23;1.13;;;14.70;60.10;;;;;;4958693;28;20643;-16
2022/01/22 10:13:11;;;;;;;1.42;1.02;;;14.70;60.10;;;;;;4971059;28;20469;-15
2022/01/22 10:15:38;;;;;;;1.45;1.35;;;14.70;60.50;;;;;;4946613;28;20055;-15
2022/01/22 10:18:03;;;;;;;1.80;1.08;;;14.70;60.50;;;;;;4958446;28;20038;-14
2022/01/22 10:20:32;;;;;;;1.65;1.00;;;14.70;60.50;;;;;;4959165;28;20047;-15
2022/01/22 10:23:02;;;;;;;1.10;1.00;;;14.70;60.70;;;;;;4955370;28;20102;-16
2022/01/22 10:25:35;;;;;;;1.83;1.25;;;14.70;60.80;;;;;;4956759;28;20071;-14
2022/01/22 10:28:14;;;;;;;1.25;1.15;;;14.70;60.90;;;;;;4957050;28;20051;-17
2022/01/22 10:30:42;;;;;;;1.25;1.15;;;14.60;60.70;;;;;;4958462;28;20054;-17
2022/01/22 10:36:10;;;;;;;1.20;1.20;;;14.70;60.50;;;;;;4959625;28;20065;-17
2022/01/22 10:38:56;;;;;;;0.88;0.88;;;14.60;60.50;;;;;;4959402;28;20079;-17
2022/01/22 10:41:39;;;;;;;1.10;1.10;;;14.60;60.70;;;;;;4956651;28;20130;-14
2022/01/22 10:44:08;;;;;;;1.25;1.13;;;14.60;60.50;;;;;;4948585;28;20476;-14
2022/01/22 10:47:03;;;;;;;2.35;1.08;;;14.60;60.70;;;;;;4958859;28;20411;-16
2022/01/22 10:49:28;;;;;;;0.93;0.93;;;14.60;60.70;;;;;;4959684;28;20043;-17
2022/01/22 10:52:03;;;;;;;0.98;0.98;;;14.60;60.50;;;;;;4952335;28;20099;-17
2022/01/22 10:54:31;;;;;;;0.70;0.70;;;14.60;60.60;;;;;;4959284;28;20523;-14
2022/01/22 10:57:18;;;;;;;2.03;1.15;;;14.60;60.30;;;;;;4958640;28;20047;-15
2022/01/22 10:59:51;;;;;;;0.80;0.80;;;14.70;60.10;;;;;;4957420;28;20384;-15
2022/01/22 11:02:17;;;;;;;1.00;1.00;;;14.70;60.30;;;;;;4959064;28;20090;-16
2022/01/22 11:04:43;;;;;;;1.15;1.05;;;14.70;60.30;;;;;;4958914;28;20089;-15
2022/01/22 11:07:17;;;;;;;0.90;0.90;;;14.70;60.10;;;;;;4958221;28;20051;-15
2022/01/22 11:09:43;;;;;;;0.90;0.90;;;14.70;60.00;;;;;;4958093;28;20075;-17
2022/01/22 11:12:09;;;;;;;0.98;0.90;;;14.70;60.10;;;;;;4951895;28;20043;-16
2022/01/22 11:14:37;;;;;;;1.20;1.00;;;14.70;60.40;;;;;;4954092;28;20051;-18
2022/01/22 11:17:03;;;;;;;1.35;1.25;;;14.60;60.40;;;;;;4950863;28;20054;-17
2022/01/22 11:19:33;;;;;;;0.98;0.98;;;14.70;60.40;;;;;;4958971;28;20039;-17
2022/01/22 11:22:09;;;;;;;1.25;1.15;;;14.70;60.50;;;;;;4958187;28;20051;-16
2022/01/22 11:24:39;;;;;;;1.10;0.93;;;14.60;60.50;;;;;;4957663;28;20047;-14
2022/01/22 11:27:05;;;;;;;1.00;1.00;;;14.60;60.60;;;;;;4955407;28;20424;-15
2022/01/22 11:29:53;;;;;;;1.73;1.00;;;14.70;60.50;;;;;;4952637;28;20043;-15
2022/01/22 11:32:25;;;;;;;1.00;1.00;;;14.70;60.40;;;;;;4605820;28;9999750;-16
2022/01/22 11:34:52;;;;;;;0.90;0.90;;;14.70;60.40;;;;;;4610982;28;10000634;-16
2022/01/22 11:37:19;;;;;;;1.02;1.02;;;14.70;60.60;;;;;;4952287;28;20207;-17
2022/01/22 11:39:44;;;;;;;2.13;1.15;;;14.70;60.40;;;;;;4952663;28;20051;-15
2022/01/22 11:42:10;;;;;;;1.15;1.15;;;14.70;60.80;;;;;;4958628;28;20051;-17
2022/01/22 11:44:47;;;;;;;1.10;1.10;;;14.60;61.10;;;;;;4953400;28;20051;-15
2022/01/22 11:47:19;;;;;;;2.72;1.10;;;14.70;61.40;;;;;;4954393;28;20484;-15
2022/01/22 11:50:13;;;;;;;1.35;1.10;;;14.70;61.50;;;;;;4952645;28;20125;-15
2022/01/22 11:52:39;;;;;;;1.13;1.10;;;14.70;60.90;;;;;;4952418;28;20055;-14
2022/01/22 11:55:15;;;;;;;1.42;1.02;;;14.80;61.00;;;;;;4954183;28;20098;-16
2022/01/22 11:57:42;;;;;;;0.77;0.77;;;14.70;61.10;;;;;;4945551;28;20062;-14
2022/01/22 12:00:18;;;;;;;1.00;1.00;;;14.70;60.80;;;;;;4955301;28;20072;-15
2022/01/22 12:02:43;;;;;;;1.17;1.10;;;14.70;61.00;;;;;;4942279;28;20047;-15
2022/01/22 12:05:09;;;;;;;0.80;0.80;;;14.70;61.50;;;;;;4952266;28;20049;-15
2022/01/22 12:07:36;;;;;;;1.00;0.80;;;14.70;61.30;;;;;;4954077;28;20051;-15
2022/01/22 12:16:08;;;;;;;0.90;0.90;;;14.80;60.90;;;;;;4945856;28;20098;-16
2022/01/22 12:18:38;;;;;;;0.98;0.98;;;14.80;60.90;;;;;;4956977;28;20110;-17
2022/01/22 12:23:32;;;;;;;1.00;1.00;;;14.80;60.80;;;;;;4951722;28;20105;-16
2022/01/22 12:25:59;;;;;;;0.77;0.77;;;14.90;60.90;;;;;;4952689;28;20046;-16
2022/01/22 12:28:44;;;;;;;0.90;0.90;;;14.90;61.60;;;;;;4949219;28;20048;-15
2022/01/22 12:31:19;;;;;;;0.95;0.90;;;14.90;60.80;;;;;;4947846;28;20051;-15
2022/01/22 12:33:47;;;;;;;1.33;1.00;;;14.90;60.80;;;;;;4952600;28;20516;-14
2022/01/22 12:36:32;;;;;;;0.98;0.93;;;14.80;60.80;;;;;;4953632;28;20117;-16
2022/01/22 12:39:03;;;;;;;1.17;1.08;;;14.90;60.70;;;;;;4952504;28;20062;-17
2022/01/22 12:46:49;;;;;;;0.85;0.85;;;14.80;60.80;;;;;;4952333;28;20476;-16
2022/01/22 12:49:15;;;;;;;1.00;1.00;;;14.80;60.90;;;;;;4950497;28;20497;-15
2022/01/22 12:51:40;;;;;;;0.88;0.88;;;14.80;60.90;;;;;;4946477;28;20483;-14
2022/01/22 12:54:06;;;;;;;0.80;0.80;;;14.80;60.90;;;;;;4952487;28;20051;-16
2022/01/22 12:59:05;;;;;;;0.80;0.80;;;14.90;60.70;;;;;;4947988;28;20125;-16
2022/01/22 13:01:32;;;;;;;1.10;0.90;;;14.90;60.80;;;;;;4953204;28;20519;-17
2022/01/22 13:04:00;;;;;;;1.23;0.95;;;14.90;60.80;;;;;;4952048;28;20137;-17
2022/01/22 13:06:40;;;;;;;1.40;1.30;;;14.90;60.90;;;;;;4949094;28;20512;-17
2022/01/22 13:09:06;;;;;;;1.10;1.00;;;14.90;61.00;;;;;;4943490;28;20054;-15
2022/01/22 13:11:32;;;;;;;1.25;0.90;;;14.90;61.00;;;;;;4952412;28;20047;-16
2022/01/22 13:13:58;;;;;;;1.30;0.98;;;14.90;61.00;;;;;;4952316;28;20047;-16
2022/01/22 13:16:24;;;;;;;0.80;0.80;;;14.90;61.10;;;;;;4949178;28;20166;-15
2022/01/22 13:19:00;;;;;;;1.00;1.00;;;14.90;61.10;;;;;;4958512;28;20053;-17
2022/01/22 13:21:29;;;;;;;1.40;1.05;;;14.80;60.90;;;;;;4958543;28;20051;-15
2022/01/22 13:24:09;;;;;;;1.02;1.02;;;14.80;60.90;;;;;;4952179;28;20508;-16
2022/01/22 13:26:42;;;;;;;0.70;0.70;;;14.90;60.90;;;;;;4952409;28;20047;-18
2022/01/22 13:29:19;;;;;;;0.80;0.80;;;14.90;60.90;;;;;;4942071;28;20072;-16
2022/01/22 13:35:13;;;;;;;1.10;1.05;;;14.90;60.70;;;;;;4951436;28;20122;-17
2022/01/22 13:49:03;;;;;;;0.85;0.85;;;14.90;60.90;;;;;;4952730;28;20050;-16
2022/01/22 13:51:28;;;;;;;0.85;0.85;;;14.90;60.90;;;;;;4956690;28;20094;-16
2022/01/22 13:53:57;;;;;;;0.80;0.80;;;14.80;61.00;;;;;;4955349;28;20059;-14
2022/01/22 13:56:50;;;;;;;1.20;0.93;;;14.80;60.90;;;;;;4938373;28;20222;-17
2022/01/22 13:59:17;;;;;;;0.77;0.77;;;14.80;60.80;;;;;;4961471;28;20138;-16
2022/01/22 14:01:52;;;;;;;1.20;1.10;;;14.80;60.90;;;;;;4962022;28;20044;-15
2022/01/22 14:04:18;;;;;;;0.90;0.90;;;14.80;60.90;;;;;;4956474;28;20051;-15
2022/01/22 14:06:46;;;;;;;2.60;1.17;;;14.90;60.70;;;;;;4952163;28;20443;-17
2022/01/22 14:09:16;;;;;;;1.00;1.00;;;14.80;60.80;;;;;;4958835;28;20060;-17
2022/01/22 14:12:03;;;;;;;0.90;0.90;;;14.80;60.90;;;;;;4959574;28;20544;-16
2022/01/22 14:14:31;;;;;;;0.95;0.95;;;14.80;60.80;;;;;;4939937;28;20084;-15
2022/01/22 14:17:11;;;;;;;1.52;1.08;;;14.80;60.90;;;;;;4955292;28;20051;-16
2022/01/22 14:19:37;;;;;;;1.42;0.82;;;14.70;60.80;;;;;;4959396;28;20538;-15
2022/01/22 14:22:02;;;;;;;1.23;1.00;;;14.80;60.70;;;;;;4958776;28;20047;-14
2022/01/22 14:24:30;;;;;;;1.05;0.95;;;14.80;60.60;;;;;;4958979;28;20047;-14
2022/01/22 14:26:55;;;;;;;1.35;0.80;;;14.80;60.60;;;;;;4958256;28;20051;-14
2022/01/22 14:29:21;;;;;;;1.02;0.93;;;14.70;60.50;;;;;;4956844;28;20055;-16
2022/01/22 14:31:47;;;;;;;0.88;0.88;;;14.70;60.80;;;;;;4958846;28;20046;-17
2022/01/22 14:34:29;;;;;;;0.80;0.80;;;14.80;60.70;;;;;;4968838;28;20047;-17
2022/01/22 14:36:55;;;;;;;1.67;0.85;;;14.70;60.60;;;;;;4958288;28;20055;-16
2022/01/22 14:44:54;;;;;;;0.75;0.75;;;14.70;60.50;;;;;;4958473;28;20050;-17
2022/01/22 14:47:24;;;;;;;1.13;1.05;;;14.80;60.40;;;;;;4951826;28;20055;-17
2022/01/22 14:49:52;;;;;;;1.25;1.20;;;14.80;60.40;;;;;;4955925;28;20063;-16
2022/01/22 14:52:20;;;;;;;0.90;0.80;;;14.70;60.40;;;;;;4940447;28;20054;-17
2022/01/22 14:54:47;;;;;;;1.10;1.00;;;14.70;60.40;;;;;;4939029;28;20067;-17
2022/01/22 14:57:14;;;;;;;1.20;1.00;;;14.80;60.30;;;;;;4953174;28;20047;-14
2022/01/22 14:59:41;;;;;;;0.73;0.73;;;14.80;60.40;;;;;;4958632;28;20115;-18